createdAt,value
2017-09-11T00:01:02.871Z,2.57
2017-09-11T00:03:30.336Z,2.30
2017-09-11T00:05:58.582Z,2.13
2017-09-11T00:08:26.844Z,2.00
2017-09-11T00:10:55.113Z,2.33
2017-09-11T00:13:23.349Z,2.13
2017-09-11T00:15:50.975Z,2.30
2017-09-11T00:18:18.439Z,2.23
2017-09-11T00:20:46.711Z,2.50
2017-09-11T00:23:15.175Z,1.60
2017-09-11T00:25:42.692Z,2.50
2017-09-11T00:28:10.920Z,1.97
2017-09-11T00:30:38.394Z,2.30
2017-09-11T00:33:06.652Z,1.90
2017-09-11T00:35:34.875Z,1.80
2017-09-11T00:38:02.459Z,2.00
2017-09-11T00:40:30.679Z,1.90
2017-09-11T00:42:58.895Z,2.10
2017-09-11T00:45:26.461Z,2.27
2017-09-11T00:47:54.683Z,2.17
2017-09-11T00:50:22.167Z,1.80
2017-09-11T00:52:50.628Z,1.90
2017-09-11T00:55:18.888Z,2.40
2017-09-11T00:57:47.148Z,2.00
2017-09-11T01:00:15.409Z,2.17
2017-09-11T01:02:43.627Z,1.90
2017-09-11T01:05:11.113Z,2.00
2017-09-11T01:07:39.348Z,2.13
2017-09-11T01:10:06.816Z,2.20
2017-09-11T01:12:35.141Z,2.03
2017-09-11T01:15:02.593Z,2.40
2017-09-11T01:17:30.060Z,1.70
2017-09-11T01:19:58.321Z,2.20
2017-09-11T01:22:26.585Z,1.90
2017-09-11T01:24:54.837Z,2.47
2017-09-11T01:27:22.291Z,1.97
2017-09-11T01:29:50.516Z,1.97
2017-09-11T01:32:18.180Z,2.00
2017-09-11T01:34:46.399Z,2.30
2017-09-11T01:37:13.883Z,2.00
2017-09-11T01:39:42.144Z,1.87
2017-09-11T01:42:09.595Z,2.40
2017-09-11T01:44:37.292Z,2.63
2017-09-11T01:47:05.565Z,2.20
2017-09-11T01:49:33.792Z,2.33
2017-09-11T01:52:01.273Z,2.00
2017-09-11T01:54:28.808Z,2.10
2017-09-11T01:56:57.080Z,2.60
2017-09-11T01:59:25.420Z,2.03
2017-09-11T02:01:53.639Z,2.20
2017-09-11T02:04:21.100Z,2.10
2017-09-11T02:06:48.568Z,2.53
2017-09-11T02:09:16.834Z,2.10
2017-09-11T02:11:45.092Z,2.00
2017-09-11T02:14:13.317Z,2.60
2017-09-11T02:16:40.796Z,2.23
2017-09-11T02:19:09.032Z,2.37
2017-09-11T02:21:36.484Z,2.70
2017-09-11T02:24:04.748Z,2.80
2017-09-11T02:26:32.972Z,2.70
2017-09-11T02:29:00.423Z,2.27
2017-09-11T02:31:27.888Z,2.13
2017-09-11T02:33:56.148Z,2.50
2017-09-11T02:36:24.406Z,2.53
2017-09-11T02:38:52.669Z,2.37
2017-09-11T02:41:20.888Z,2.43
2017-09-11T02:43:48.349Z,2.57
2017-09-11T02:46:15.912Z,2.40
2017-09-11T02:48:43.455Z,2.63
2017-09-11T02:51:11.681Z,2.60
2017-09-11T02:53:39.161Z,2.23
2017-09-11T02:56:07.520Z,2.63
2017-09-11T02:58:35.745Z,2.67
2017-09-11T03:01:03.202Z,2.70
2017-09-11T03:03:30.760Z,2.07
2017-09-11T03:05:58.307Z,2.40
2017-09-11T03:08:26.571Z,1.90
2017-09-11T03:10:54.812Z,2.27
2017-09-11T03:13:22.292Z,2.50
2017-09-11T03:15:50.511Z,1.90
2017-09-11T03:18:17.965Z,2.10
2017-09-11T03:20:46.347Z,2.53
2017-09-11T03:23:14.592Z,2.23
2017-09-11T03:25:42.813Z,2.20
2017-09-11T03:28:10.296Z,3.73
2017-09-11T03:30:38.560Z,2.27
2017-09-11T03:33:06.817Z,2.00
2017-09-11T03:35:35.068Z,1.80
2017-09-11T03:38:02.516Z,2.50
2017-09-11T03:40:29.968Z,3.00
2017-09-11T03:42:57.455Z,2.40
2017-09-11T03:45:25.671Z,2.03
2017-09-11T03:47:53.127Z,2.10
2017-09-11T03:50:20.592Z,2.13
2017-09-11T03:52:48.856Z,2.30
2017-09-11T03:55:16.400Z,2.53
2017-09-11T03:57:44.655Z,2.13
2017-09-11T04:00:12.921Z,2.13
2017-09-11T04:02:41.158Z,1.97
2017-09-11T04:05:08.649Z,2.27
2017-09-11T04:07:36.169Z,2.37
2017-09-11T04:10:04.384Z,2.60
2017-09-11T04:12:31.871Z,3.67
2017-09-11T04:15:00.087Z,3.20
2017-09-11T04:17:27.625Z,3.37
2017-09-11T04:19:55.110Z,3.40
2017-09-11T04:22:22.657Z,3.73
2017-09-11T04:24:50.884Z,3.80
2017-09-11T04:27:18.352Z,3.90
2017-09-11T04:29:46.612Z,4.33
2017-09-11T04:32:14.836Z,3.40
2017-09-11T04:34:42.417Z,4.23
2017-09-11T04:37:10.675Z,3.83
2017-09-11T04:39:38.903Z,4.30
2017-09-11T04:42:06.359Z,4.73
2017-09-11T04:44:34.035Z,4.83
2017-09-11T04:47:02.318Z,4.60
2017-09-11T04:49:30.567Z,4.37
2017-09-11T04:51:59.024Z,4.40
2017-09-11T04:54:27.346Z,4.70
2017-09-11T04:56:54.800Z,4.40
2017-09-11T04:59:22.276Z,5.03
2017-09-11T05:01:49.736Z,6.50
2017-09-11T05:04:17.208Z,5.80
2017-09-11T05:06:44.696Z,5.93
2017-09-11T05:09:12.925Z,5.27
2017-09-11T05:11:40.404Z,5.83
2017-09-11T05:14:08.657Z,5.60
2017-09-11T05:16:36.108Z,5.93
2017-09-11T05:19:03.644Z,5.70
2017-09-11T05:21:31.903Z,6.30
2017-09-11T05:23:59.368Z,6.20
2017-09-11T05:26:26.868Z,7.17
2017-09-11T05:28:54.324Z,6.13
2017-09-11T05:31:22.596Z,6.80
2017-09-11T05:33:50.949Z,5.50
2017-09-11T05:36:19.212Z,4.77
2017-09-11T05:38:47.445Z,5.70
2017-09-11T05:41:14.916Z,4.80
2017-09-11T05:43:43.180Z,4.80
2017-09-11T05:46:11.439Z,5.17
2017-09-11T05:48:38.901Z,4.63
2017-09-11T05:51:07.156Z,4.43
2017-09-11T05:53:35.408Z,4.60
2017-09-11T05:56:03.623Z,3.90
2017-09-11T05:58:31.080Z,3.60
2017-09-11T06:00:58.647Z,3.50
2017-09-11T06:03:28.000Z,2.50
2017-09-11T06:05:55.453Z,3.00
2017-09-11T06:08:23.020Z,4.10
2017-09-11T06:10:51.234Z,3.50
2017-09-11T06:13:18.732Z,2.80
2017-09-11T06:15:46.948Z,3.30
2017-09-11T06:18:14.400Z,3.60
2017-09-11T06:20:41.968Z,3.20
2017-09-11T06:23:10.212Z,3.47
2017-09-11T06:25:37.977Z,3.50
2017-09-11T06:28:06.237Z,3.77
2017-09-11T06:30:33.691Z,3.80
2017-09-11T06:33:01.916Z,3.23
2017-09-11T06:35:29.584Z,3.30
2017-09-11T06:37:57.844Z,3.70
2017-09-11T06:40:26.063Z,3.17
2017-09-11T06:42:53.550Z,3.90
2017-09-11T06:45:21.104Z,3.50
2017-09-11T06:47:48.564Z,3.53
2017-09-11T06:50:16.812Z,3.40
2017-09-11T06:52:45.032Z,3.20
2017-09-11T06:55:12.504Z,3.50
2017-09-11T06:57:40.751Z,3.60
2017-09-11T07:00:08.309Z,3.40
2017-09-11T07:02:36.578Z,3.93
2017-09-11T07:05:04.841Z,3.33
2017-09-11T07:07:33.056Z,3.87
2017-09-11T07:10:00.512Z,4.30
2017-09-11T07:12:39.887Z,4.90
2017-09-11T07:15:07.345Z,4.90
2017-09-11T07:17:34.799Z,5.33
2017-09-11T07:20:02.476Z,6.13
2017-09-11T07:22:30.703Z,6.13
2017-09-11T07:24:58.184Z,6.30
2017-09-11T07:27:25.724Z,6.17
2017-09-11T07:29:53.947Z,4.83
2017-09-11T07:32:21.428Z,5.10
2017-09-11T07:34:49.799Z,4.30
2017-09-11T07:37:18.055Z,4.63
2017-09-11T07:39:46.271Z,4.33
2017-09-11T07:42:13.827Z,4.17
2017-09-11T07:44:41.284Z,3.30
2017-09-11T07:47:08.736Z,4.10
2017-09-11T07:49:37.203Z,3.33
2017-09-11T07:52:05.423Z,3.63
2017-09-11T07:54:32.895Z,3.70
2017-09-11T07:57:00.384Z,3.00
2017-09-11T07:59:28.004Z,3.73
2017-09-11T08:01:56.252Z,3.20
2017-09-11T08:04:24.516Z,3.43
2017-09-11T08:06:52.733Z,3.60
2017-09-11T08:09:20.204Z,3.33
2017-09-11T08:11:47.859Z,3.70
2017-09-11T08:14:16.141Z,3.43
2017-09-11T08:16:43.665Z,3.13
2017-09-11T08:19:11.218Z,3.60
2017-09-11T08:21:39.476Z,3.70
2017-09-11T08:24:07.699Z,3.03
2017-09-11T08:26:35.155Z,3.03
2017-09-11T08:29:02.628Z,3.90
2017-09-11T08:31:30.884Z,3.87
2017-09-11T08:33:58.437Z,2.90
2017-09-11T08:36:26.911Z,3.03
2017-09-11T08:38:55.268Z,2.97
2017-09-11T08:41:23.484Z,2.83
2017-09-11T08:43:51.077Z,3.50
2017-09-11T08:46:19.328Z,3.43
2017-09-11T08:48:46.788Z,2.80
2017-09-11T08:51:15.016Z,3.03
2017-09-11T08:53:42.636Z,4.67
2017-09-11T08:56:10.119Z,3.60
2017-09-11T08:58:38.381Z,4.13
2017-09-11T09:01:06.603Z,3.83
2017-09-11T09:03:34.068Z,4.30
2017-09-11T09:06:01.619Z,3.83
2017-09-11T09:08:29.887Z,4.33
2017-09-11T09:10:58.161Z,3.73
2017-09-11T09:13:26.384Z,3.50
2017-09-11T09:15:54.052Z,4.37
2017-09-11T09:18:21.604Z,4.13
2017-09-11T09:20:49.145Z,3.60
2017-09-11T09:23:16.832Z,4.37
2017-09-11T09:25:45.096Z,4.23
2017-09-11T09:28:13.317Z,3.90
2017-09-11T09:30:40.776Z,4.37
2017-09-11T09:33:08.227Z,3.70
2017-09-11T09:35:35.780Z,4.07
2017-09-11T09:38:04.035Z,4.27
2017-09-11T09:40:32.261Z,3.97
2017-09-11T09:42:59.723Z,5.03
2017-09-11T09:45:27.192Z,4.60
2017-09-11T09:47:55.445Z,3.70
2017-09-11T09:50:23.908Z,4.07
2017-09-11T09:52:52.139Z,3.27
2017-09-11T09:55:19.616Z,4.17
2017-09-11T09:57:47.971Z,3.70
2017-09-11T10:00:16.199Z,3.87
2017-09-11T10:02:43.656Z,2.80
2017-09-11T10:05:11.148Z,3.07
2017-09-11T10:07:38.656Z,4.20
2017-09-11T10:10:06.940Z,2.97
2017-09-11T10:12:34.413Z,3.00
2017-09-11T10:15:02.003Z,2.80
2017-09-11T10:17:30.272Z,2.90
2017-09-11T10:19:57.752Z,2.80
2017-09-11T10:22:25.203Z,3.33
2017-09-11T10:24:52.652Z,2.97
2017-09-11T10:27:20.139Z,3.00
2017-09-11T10:29:47.692Z,2.90
2017-09-11T10:32:15.926Z,3.10
2017-09-11T10:34:43.495Z,3.13
2017-09-11T10:37:10.963Z,2.87
2017-09-11T10:39:38.419Z,3.03
2017-09-11T10:42:06.668Z,4.10
2017-09-11T10:44:34.901Z,2.73
2017-09-11T10:47:02.364Z,2.53
2017-09-11T10:49:30.633Z,3.53
2017-09-11T10:51:58.888Z,2.73
2017-09-11T10:54:27.104Z,2.93
2017-09-11T10:56:54.560Z,2.93
2017-09-11T10:59:22.020Z,3.63
2017-09-11T11:01:50.274Z,3.27
2017-09-11T11:04:17.817Z,3.10
2017-09-11T11:06:46.041Z,3.73
2017-09-11T11:09:13.736Z,3.57
2017-09-11T11:11:41.248Z,3.10
2017-09-11T11:14:09.503Z,3.23
2017-09-11T11:16:37.728Z,2.90
2017-09-11T11:19:05.179Z,2.93
2017-09-11T11:21:32.743Z,2.90
2017-09-11T11:24:01.007Z,3.00
2017-09-11T11:26:29.276Z,3.13
2017-09-11T11:28:56.766Z,2.40
2017-09-11T11:31:24.212Z,3.10
2017-09-11T11:33:51.801Z,3.17
2017-09-11T11:36:20.024Z,2.20
2017-09-11T11:38:47.624Z,3.03
2017-09-11T11:41:15.847Z,3.60
2017-09-11T11:43:43.405Z,2.50
2017-09-11T11:46:11.656Z,2.60
2017-09-11T11:48:39.924Z,2.77
2017-09-11T11:51:08.183Z,2.97
2017-09-11T11:53:35.728Z,3.23
2017-09-11T11:56:03.947Z,3.73
2017-09-11T11:58:31.404Z,2.87
2017-09-11T12:00:58.876Z,2.40
2017-09-11T12:03:27.098Z,2.90
2017-09-11T12:05:54.549Z,3.10
2017-09-11T12:08:22.219Z,2.80
2017-09-11T12:10:49.664Z,2.93
2017-09-11T12:13:17.884Z,2.80
2017-09-11T12:15:45.376Z,3.10
2017-09-11T12:18:12.820Z,3.20
2017-09-11T12:20:40.279Z,2.50
2017-09-11T12:23:07.788Z,3.10
2017-09-11T12:25:36.009Z,3.70
2017-09-11T12:28:03.495Z,3.10
2017-09-11T12:30:31.744Z,2.77
2017-09-11T12:32:59.293Z,2.53
2017-09-11T12:35:26.761Z,2.67
2017-09-11T12:37:54.211Z,2.33
2017-09-11T12:40:21.685Z,3.00
2017-09-11T12:42:49.141Z,2.60
2017-09-11T12:45:16.587Z,3.03
2017-09-11T12:47:44.860Z,2.67
2017-09-11T12:50:12.324Z,2.93
2017-09-11T12:52:39.786Z,2.63
2017-09-11T12:55:07.285Z,2.37
2017-09-11T12:57:35.503Z,2.90
2017-09-11T13:00:02.989Z,2.83
2017-09-11T13:02:30.531Z,2.27
2017-09-11T13:04:58.788Z,2.10
2017-09-11T13:07:26.320Z,3.70
2017-09-11T13:09:53.887Z,3.20
2017-09-11T13:12:22.139Z,2.70
2017-09-11T13:14:50.405Z,2.47
2017-09-11T13:17:18.661Z,2.90
2017-09-11T13:19:46.879Z,2.93
2017-09-11T13:22:14.564Z,2.33
2017-09-11T13:24:42.828Z,3.20
2017-09-11T13:27:11.084Z,2.80
2017-09-11T13:29:39.300Z,2.90
2017-09-11T13:32:06.753Z,3.97
2017-09-11T13:34:34.219Z,3.63
2017-09-11T13:37:03.203Z,4.10
2017-09-11T13:39:31.564Z,2.13
2017-09-11T13:41:59.017Z,2.77
2017-09-11T13:44:27.240Z,3.03
2017-09-11T13:46:54.724Z,2.50
2017-09-11T13:49:22.252Z,2.40
2017-09-11T13:51:49.796Z,2.60
2017-09-11T13:54:18.023Z,2.93
2017-09-11T13:56:45.495Z,3.13
2017-09-11T13:59:13.731Z,2.50
2017-09-11T14:01:41.201Z,2.33
2017-09-11T14:04:09.456Z,2.37
2017-09-11T14:06:37.008Z,2.40
2017-09-11T14:09:04.461Z,2.43
2017-09-11T14:11:32.691Z,2.83
2017-09-11T14:14:00.143Z,2.30
2017-09-11T14:16:28.416Z,2.00
2017-09-11T14:18:56.866Z,2.20
2017-09-11T14:21:24.411Z,1.87
2017-09-11T14:23:51.864Z,2.00
2017-09-11T14:26:20.111Z,2.40
2017-09-11T14:28:47.659Z,2.50
2017-09-11T14:31:15.912Z,2.33
2017-09-11T14:33:43.664Z,2.10
2017-09-11T14:36:11.111Z,2.30
2017-09-11T14:38:39.368Z,1.90
2017-09-11T14:41:07.748Z,2.00
2017-09-11T14:43:35.988Z,2.10
2017-09-11T14:46:04.208Z,2.20
2017-09-11T14:48:31.820Z,2.17
2017-09-11T14:50:59.336Z,2.10
2017-09-11T14:53:26.880Z,1.80
2017-09-11T14:55:54.340Z,2.23
2017-09-11T14:58:22.551Z,1.80
2017-09-11T15:00:50.036Z,2.13
2017-09-11T15:03:18.256Z,2.03
2017-09-11T15:05:45.724Z,2.23
2017-09-11T15:08:13.980Z,2.17
2017-09-11T15:10:41.431Z,1.80
2017-09-11T15:13:09.893Z,2.33
2017-09-11T15:15:37.344Z,2.87
2017-09-11T15:18:05.568Z,2.23
2017-09-11T15:20:33.239Z,2.27
2017-09-11T15:23:01.556Z,2.77
2017-09-11T15:25:29.024Z,2.50
2017-09-11T15:27:56.688Z,2.33
2017-09-11T15:30:24.235Z,1.93
2017-09-11T15:32:52.451Z,2.50
2017-09-11T15:35:20.238Z,1.93
2017-09-11T15:37:48.460Z,2.00
2017-09-11T15:40:15.908Z,2.60
2017-09-11T15:42:43.590Z,2.90
2017-09-11T15:45:11.840Z,2.70
2017-09-11T15:47:39.297Z,2.53
2017-09-11T15:50:07.648Z,2.10
2017-09-11T15:52:35.195Z,2.07
2017-09-11T15:55:03.415Z,2.00
2017-09-11T15:57:31.080Z,2.00
2017-09-11T15:59:58.533Z,2.03
2017-09-11T16:02:26.805Z,2.87
2017-09-11T16:04:55.159Z,2.10
2017-09-11T16:07:22.655Z,1.90
2017-09-11T16:09:50.152Z,2.23
2017-09-11T16:12:18.388Z,2.60
2017-09-11T16:14:45.851Z,2.10
2017-09-11T16:17:14.111Z,2.20
2017-09-11T16:19:42.556Z,1.97
2017-09-11T16:22:10.017Z,2.30
2017-09-11T16:24:38.233Z,2.20
2017-09-11T16:27:05.863Z,1.77
2017-09-11T16:29:33.307Z,2.30
2017-09-11T16:32:00.804Z,2.70
2017-09-11T16:34:29.051Z,2.40
2017-09-11T16:36:56.541Z,2.50
2017-09-11T16:39:23.988Z,1.77
2017-09-11T16:41:51.436Z,2.80
2017-09-11T16:44:18.932Z,2.43
2017-09-11T16:46:47.155Z,2.07
2017-09-11T16:49:14.647Z,3.43
2017-09-11T16:51:42.892Z,2.20
2017-09-11T16:54:10.349Z,2.43
2017-09-11T16:56:38.800Z,3.03
2017-09-11T16:59:07.017Z,2.60
2017-09-11T17:01:34.472Z,1.90
2017-09-11T17:04:02.035Z,2.20
2017-09-11T17:06:29.507Z,2.47
2017-09-11T17:08:56.963Z,2.30
2017-09-11T17:11:24.435Z,1.90
2017-09-11T17:13:51.911Z,2.40
2017-09-11T17:16:20.550Z,2.10
2017-09-11T17:18:48.027Z,1.83
2017-09-11T17:21:16.287Z,2.27
2017-09-11T17:23:44.504Z,2.37
2017-09-11T17:26:11.984Z,1.70
2017-09-11T17:28:40.204Z,3.90
2017-09-11T17:31:07.687Z,2.40
2017-09-11T17:33:35.152Z,1.93
2017-09-11T17:36:02.605Z,1.80
2017-09-11T17:38:30.079Z,1.67
2017-09-11T17:40:57.536Z,1.90
2017-09-11T17:43:24.993Z,2.10
2017-09-11T17:45:53.459Z,2.40
2017-09-11T17:48:21.693Z,2.17
2017-09-11T17:50:49.144Z,2.13
2017-09-11T17:53:16.640Z,2.40
2017-09-11T17:55:44.099Z,2.50
2017-09-11T17:58:11.559Z,2.20
2017-09-11T18:00:39.129Z,2.43
2017-09-11T18:03:07.456Z,2.43
2017-09-11T18:05:35.144Z,1.73
2017-09-11T18:08:03.369Z,2.83
2017-09-11T18:10:30.831Z,1.80
2017-09-11T18:12:58.484Z,2.33
2017-09-11T18:15:26.843Z,2.30
2017-09-11T18:17:54.293Z,1.77
2017-09-11T18:20:22.656Z,2.17
2017-09-11T18:22:50.925Z,2.90
2017-09-11T18:25:19.225Z,3.30
2017-09-11T18:27:46.774Z,2.30
2017-09-11T18:30:14.219Z,2.50
2017-09-11T18:32:41.681Z,2.07
2017-09-11T18:35:09.244Z,1.73
2017-09-11T18:37:37.513Z,2.93
2017-09-11T18:40:05.968Z,2.43
2017-09-11T18:42:34.200Z,2.93
2017-09-11T18:45:01.673Z,3.23
2017-09-11T18:47:29.948Z,2.13
2017-09-11T18:49:58.214Z,2.17
2017-09-11T18:52:26.555Z,2.23
2017-09-11T18:54:54.794Z,2.10
2017-09-11T18:57:22.292Z,2.30
2017-09-11T18:59:49.751Z,2.20
2017-09-11T19:02:17.204Z,2.40
2017-09-11T19:04:44.783Z,2.87
2017-09-11T19:07:13.041Z,2.80
2017-09-11T19:09:41.301Z,2.00
2017-09-11T19:12:09.532Z,2.30
2017-09-11T19:14:37.013Z,2.13
2017-09-11T19:17:12.221Z,2.57
2017-09-11T19:19:40.488Z,2.37
2017-09-11T19:22:08.954Z,1.77
2017-09-11T19:24:37.172Z,2.47
2017-09-11T19:27:04.628Z,2.40
2017-09-11T19:29:32.104Z,2.20
2017-09-11T19:32:00.328Z,2.47
2017-09-11T19:34:28.009Z,1.77
2017-09-11T19:36:56.324Z,2.43
2017-09-11T19:39:23.773Z,2.00
2017-09-11T19:41:51.252Z,2.20
2017-09-11T19:44:18.712Z,2.77
2017-09-11T19:46:46.229Z,2.50
2017-09-11T19:49:38.227Z,2.00
2017-09-11T19:52:05.668Z,2.40
2017-09-11T19:54:33.388Z,3.20
2017-09-11T19:57:00.875Z,2.50
2017-09-11T19:59:28.344Z,2.50
2017-09-11T20:01:56.781Z,2.03
2017-09-11T20:04:24.227Z,1.87
2017-09-11T20:06:52.449Z,2.13
2017-09-11T20:09:19.948Z,2.57
2017-09-11T20:11:47.401Z,2.30
2017-09-11T20:14:14.848Z,2.13
2017-09-11T20:16:42.419Z,2.37
2017-09-11T20:19:09.894Z,2.30
2017-09-11T20:21:37.340Z,2.43
2017-09-11T20:24:05.569Z,2.60
2017-09-11T20:26:33.016Z,2.03
2017-09-11T20:29:00.508Z,2.53
2017-09-11T20:31:27.956Z,2.70
2017-09-11T20:33:55.414Z,1.93
2017-09-11T20:36:23.128Z,2.27
2017-09-11T20:38:51.340Z,2.50
2017-09-11T20:41:18.791Z,2.30
2017-09-11T20:43:46.286Z,2.23
2017-09-11T20:46:13.740Z,1.77
2017-09-11T20:48:41.187Z,2.33
2017-09-11T20:51:08.640Z,2.20
2017-09-11T20:53:36.088Z,2.27
2017-09-11T20:56:03.561Z,2.40
2017-09-11T20:58:31.008Z,2.37
2017-09-11T21:00:59.267Z,2.60
2017-09-11T21:03:26.757Z,2.40
2017-09-11T21:05:54.208Z,2.30
2017-09-11T21:08:21.660Z,2.20
2017-09-11T21:10:49.144Z,2.20
2017-09-11T21:13:17.364Z,2.67
2017-09-11T21:15:44.855Z,2.10
2017-09-11T21:18:12.311Z,2.83
2017-09-11T21:20:39.759Z,2.47
2017-09-11T21:23:08.140Z,2.30
2017-09-11T21:25:35.596Z,2.70
2017-09-11T21:28:03.156Z,2.40
2017-09-11T21:30:30.609Z,2.80
2017-09-11T21:32:58.828Z,2.80
2017-09-11T21:35:26.433Z,2.47
2017-09-11T21:37:53.884Z,1.77
2017-09-11T21:40:21.336Z,2.93
2017-09-11T21:42:48.787Z,2.93
2017-09-11T21:45:16.392Z,2.40
2017-09-11T21:47:43.845Z,2.67
2017-09-11T21:50:11.304Z,3.07
2017-09-11T21:52:38.760Z,3.33
2017-09-11T21:55:06.230Z,2.60
2017-09-11T21:57:33.678Z,2.70
2017-09-11T22:00:01.153Z,3.17
2017-09-11T22:02:28.621Z,2.33
2017-09-11T22:04:56.068Z,2.53
2017-09-11T22:07:23.754Z,2.50
2017-09-11T22:09:51.215Z,2.40
2017-09-11T22:12:19.423Z,2.30
2017-09-11T22:14:46.884Z,3.10
2017-09-11T22:17:14.344Z,3.07
2017-09-11T22:19:42.556Z,2.73
2017-09-11T22:22:10.056Z,2.77
2017-09-11T22:24:38.273Z,3.10
2017-09-11T22:27:06.484Z,2.70
2017-09-11T22:29:34.207Z,2.50
2017-09-11T22:32:01.651Z,3.13
2017-09-11T22:34:29.865Z,2.97
2017-09-11T22:36:57.352Z,2.60
2017-09-11T22:39:25.583Z,2.70
2017-09-11T22:41:53.036Z,2.73
2017-09-11T22:44:20.648Z,2.83
2017-09-11T22:46:48.100Z,2.93
2017-09-11T22:49:15.552Z,2.10
2017-09-11T22:51:43.159Z,2.40
2017-09-11T22:54:10.607Z,2.80
2017-09-11T22:56:38.056Z,2.80
2017-09-11T22:59:05.511Z,3.70
2017-09-11T23:01:32.968Z,2.20
2017-09-11T23:04:00.419Z,2.10
2017-09-11T23:06:27.888Z,3.03
2017-09-11T23:08:56.123Z,2.53
2017-09-11T23:11:23.572Z,2.50
2017-09-11T23:13:51.019Z,2.30
2017-09-11T23:16:19.307Z,3.10
2017-09-11T23:18:46.807Z,2.67
2017-09-11T23:21:14.357Z,2.83
2017-09-11T23:23:41.899Z,2.07
2017-09-11T23:26:09.393Z,2.80
2017-09-11T23:28:36.838Z,2.43
2017-09-11T23:31:04.324Z,2.33
2017-09-11T23:33:32.543Z,2.10
2017-09-11T23:35:59.995Z,2.93
2017-09-11T23:38:27.468Z,2.30
2017-09-11T23:40:54.916Z,2.67
2017-09-11T23:43:23.140Z,3.03
2017-09-11T23:45:50.812Z,2.03
2017-09-11T23:48:18.357Z,2.83
2017-09-11T23:50:45.812Z,2.60
2017-09-11T23:53:14.248Z,1.83
2017-09-11T23:55:41.692Z,3.00
2017-09-11T23:58:09.143Z,2.63
